sensor_id;sensor_type;location;lat;lon;timestamp;P1;durP1;ratioP1;P2;durP2;ratioP2
4391;SDS011;2210;51.938;8.488;2022-08-21T00:03:31;7.20;;;4.40;;
4391;SDS011;2210;51.938;8.488;2022-08-21T00:07:32;9.40;;;4.43;;
4391;SDS011;2210;51.938;8.488;2022-08-21T00:11:33;9.57;;;4.60;;
4391;SDS011;2210;51.938;8.488;2022-08-21T00:15:35;11.93;;;5.30;;
4391;SDS011;2210;51.938;8.488;2022-08-21T00:19:37;6.13;;;5.03;;
4391;SDS011;2210;51.938;8.488;2022-08-21T00:23:37;5.10;;;4.40;;
4391;SDS011;2210;51.938;8.488;2022-08-21T00:27:38;7.93;;;5.13;;
4391;SDS011;2210;51.938;8.488;2022-08-21T00:31:39;13.00;;;4.90;;
4391;SDS011;2210;51.938;8.488;2022-08-21T00:35:40;4.50;;;3.83;;
4391;SDS011;2210;51.938;8.488;2022-08-21T00:39:42;7.20;;;4.83;;
4391;SDS011;2210;51.938;8.488;2022-08-21T00:43:42;6.57;;;4.50;;
4391;SDS011;2210;51.938;8.488;2022-08-21T00:47:43;6.60;;;4.60;;
4391;SDS011;2210;51.938;8.488;2022-08-21T00:51:45;7.60;;;4.77;;
4391;SDS011;2210;51.938;8.488;2022-08-21T00:55:49;6.80;;;4.87;;
4391;SDS011;2210;51.938;8.488;2022-08-21T00:59:51;10.60;;;4.87;;
4391;SDS011;2210;51.938;8.488;2022-08-21T01:03:55;11.07;;;4.10;;
4391;SDS011;2210;51.938;8.488;2022-08-21T01:07:56;8.20;;;4.37;;
4391;SDS011;2210;51.938;8.488;2022-08-21T01:11:59;5.80;;;4.57;;
4391;SDS011;2210;51.938;8.488;2022-08-21T01:15:59;7.03;;;4.70;;
4391;SDS011;2210;51.938;8.488;2022-08-21T01:20:04;6.70;;;4.70;;
4391;SDS011;2210;51.938;8.488;2022-08-21T01:24:06;5.60;;;4.60;;
4391;SDS011;2210;51.938;8.488;2022-08-21T01:28:13;8.60;;;4.20;;
4391;SDS011;2210;51.938;8.488;2022-08-21T01:32:15;7.10;;;4.73;;
4391;SDS011;2210;51.938;8.488;2022-08-21T01:36:17;7.80;;;4.70;;
4391;SDS011;2210;51.938;8.488;2022-08-21T01:40:18;6.47;;;5.13;;
4391;SDS011;2210;51.938;8.488;2022-08-21T01:44:22;7.30;;;4.77;;
4391;SDS011;2210;51.938;8.488;2022-08-21T01:48:22;7.93;;;5.50;;
4391;SDS011;2210;51.938;8.488;2022-08-21T01:52:23;8.63;;;5.70;;
4391;SDS011;2210;51.938;8.488;2022-08-21T01:56:24;9.60;;;5.77;;
4391;SDS011;2210;51.938;8.488;2022-08-21T02:00:24;6.57;;;5.87;;
4391;SDS011;2210;51.938;8.488;2022-08-21T02:04:25;6.70;;;6.10;;
4391;SDS011;2210;51.938;8.488;2022-08-21T02:08:27;8.25;;;7.15;;
4391;SDS011;2210;51.938;8.488;2022-08-21T02:12:28;7.23;;;6.17;;
4391;SDS011;2210;51.938;8.488;2022-08-21T02:16:28;8.27;;;7.13;;
4391;SDS011;2210;51.938;8.488;2022-08-21T02:20:39;7.35;;;5.65;;
4391;SDS011;2210;51.938;8.488;2022-08-21T02:24:41;9.20;;;6.27;;
4391;SDS011;2210;51.938;8.488;2022-08-21T02:28:42;7.07;;;5.50;;
4391;SDS011;2210;51.938;8.488;2022-08-21T02:32:42;9.10;;;5.93;;
4391;SDS011;2210;51.938;8.488;2022-08-21T02:36:43;7.40;;;6.70;;
4391;SDS011;2210;51.938;8.488;2022-08-21T02:40:44;10.90;;;5.80;;
4391;SDS011;2210;51.938;8.488;2022-08-21T02:44:46;7.23;;;6.40;;
4391;SDS011;2210;51.938;8.488;2022-08-21T02:48:47;9.20;;;6.90;;
4391;SDS011;2210;51.938;8.488;2022-08-21T02:52:48;7.73;;;6.67;;
4391;SDS011;2210;51.938;8.488;2022-08-21T02:56:49;8.30;;;6.03;;
4391;SDS011;2210;51.938;8.488;2022-08-21T03:00:49;12.47;;;7.20;;
4391;SDS011;2210;51.938;8.488;2022-08-21T03:04:51;7.33;;;6.60;;
4391;SDS011;2210;51.938;8.488;2022-08-21T03:08:51;7.90;;;6.20;;
4391;SDS011;2210;51.938;8.488;2022-08-21T03:12:51;12.20;;;6.33;;
4391;SDS011;2210;51.938;8.488;2022-08-21T03:16:51;12.37;;;7.17;;
4391;SDS011;2210;51.938;8.488;2022-08-21T03:20:52;9.40;;;7.00;;
4391;SDS011;2210;51.938;8.488;2022-08-21T03:24:52;7.20;;;5.73;;
4391;SDS011;2210;51.938;8.488;2022-08-21T03:28:53;6.30;;;5.70;;
4391;SDS011;2210;51.938;8.488;2022-08-21T03:32:53;8.67;;;7.00;;
4391;SDS011;2210;51.938;8.488;2022-08-21T03:36:54;9.03;;;6.50;;
4391;SDS011;2210;51.938;8.488;2022-08-21T03:40:54;6.77;;;5.93;;
4391;SDS011;2210;51.938;8.488;2022-08-21T03:44:54;12.93;;;7.87;;
4391;SDS011;2210;51.938;8.488;2022-08-21T03:48:54;7.63;;;6.25;;
4391;SDS011;2210;51.938;8.488;2022-08-21T03:52:55;9.30;;;6.57;;
4391;SDS011;2210;51.938;8.488;2022-08-21T03:56:55;11.10;;;7.70;;
4391;SDS011;2210;51.938;8.488;2022-08-21T04:00:57;10.20;;;7.57;;
4391;SDS011;2210;51.938;8.488;2022-08-21T04:04:58;11.63;;;6.87;;
4391;SDS011;2210;51.938;8.488;2022-08-21T04:08:58;8.47;;;7.57;;
4391;SDS011;2210;51.938;8.488;2022-08-21T04:12:58;9.93;;;7.87;;
4391;SDS011;2210;51.938;8.488;2022-08-21T04:16:59;9.03;;;7.57;;
4391;SDS011;2210;51.938;8.488;2022-08-21T04:20:59;8.30;;;7.40;;
4391;SDS011;2210;51.938;8.488;2022-08-21T04:25:01;10.47;;;7.20;;
4391;SDS011;2210;51.938;8.488;2022-08-21T04:29:02;10.10;;;7.40;;
4391;SDS011;2210;51.938;8.488;2022-08-21T04:33:04;7.87;;;7.13;;
4391;SDS011;2210;51.938;8.488;2022-08-21T04:37:05;9.60;;;7.53;;
4391;SDS011;2210;51.938;8.488;2022-08-21T04:41:05;8.70;;;7.80;;
4391;SDS011;2210;51.938;8.488;2022-08-21T04:45:06;9.30;;;7.13;;
4391;SDS011;2210;51.938;8.488;2022-08-21T04:49:06;8.00;;;6.90;;
4391;SDS011;2210;51.938;8.488;2022-08-21T04:53:09;8.40;;;7.07;;
4391;SDS011;2210;51.938;8.488;2022-08-21T04:57:12;12.53;;;7.77;;
4391;SDS011;2210;51.938;8.488;2022-08-21T05:01:16;8.03;;;7.33;;
4391;SDS011;2210;51.938;8.488;2022-08-21T05:05:21;9.30;;;7.20;;
4391;SDS011;2210;51.938;8.488;2022-08-21T05:09:21;8.30;;;7.27;;
4391;SDS011;2210;51.938;8.488;2022-08-21T05:13:23;10.00;;;7.07;;
4391;SDS011;2210;51.938;8.488;2022-08-21T05:17:23;8.50;;;7.57;;
4391;SDS011;2210;51.938;8.488;2022-08-21T05:21:24;9.87;;;7.47;;
4391;SDS011;2210;51.938;8.488;2022-08-21T05:25:24;12.10;;;7.70;;
4391;SDS011;2210;51.938;8.488;2022-08-21T05:29:25;10.83;;;8.47;;
4391;SDS011;2210;51.938;8.488;2022-08-21T05:33:25;9.53;;;8.60;;
4391;SDS011;2210;51.938;8.488;2022-08-21T05:37:26;10.53;;;8.93;;
4391;SDS011;2210;51.938;8.488;2022-08-21T05:41:26;9.83;;;8.30;;
4391;SDS011;2210;51.938;8.488;2022-08-21T05:45:31;9.02;;;7.90;;
4391;SDS011;2210;51.938;8.488;2022-08-21T05:49:32;14.30;;;9.60;;
4391;SDS011;2210;51.938;8.488;2022-08-21T05:53:33;12.13;;;9.57;;
4391;SDS011;2210;51.938;8.488;2022-08-21T05:57:33;15.13;;;9.83;;
4391;SDS011;2210;51.938;8.488;2022-08-21T06:01:33;10.93;;;8.57;;
4391;SDS011;2210;51.938;8.488;2022-08-21T06:05:33;11.57;;;9.40;;
4391;SDS011;2210;51.938;8.488;2022-08-21T06:09:34;12.83;;;9.70;;
4391;SDS011;2210;51.938;8.488;2022-08-21T06:13:34;9.27;;;8.43;;
4391;SDS011;2210;51.938;8.488;2022-08-21T06:17:35;10.90;;;9.00;;
4391;SDS011;2210;51.938;8.488;2022-08-21T06:21:36;11.40;;;8.50;;
4391;SDS011;2210;51.938;8.488;2022-08-21T06:25:36;15.85;;;9.52;;
4391;SDS011;2210;51.938;8.488;2022-08-21T06:29:36;11.03;;;8.77;;
4391;SDS011;2210;51.938;8.488;2022-08-21T06:33:37;10.37;;;8.57;;
4391;SDS011;2210;51.938;8.488;2022-08-21T06:37:38;11.90;;;8.47;;
4391;SDS011;2210;51.938;8.488;2022-08-21T06:41:38;10.90;;;9.90;;
4391;SDS011;2210;51.938;8.488;2022-08-21T06:45:39;11.90;;;9.10;;
4391;SDS011;2210;51.938;8.488;2022-08-21T06:49:39;11.13;;;9.70;;
4391;SDS011;2210;51.938;8.488;2022-08-21T06:53:40;11.33;;;9.67;;
4391;SDS011;2210;51.938;8.488;2022-08-21T06:57:40;14.23;;;10.50;;
4391;SDS011;2210;51.938;8.488;2022-08-21T07:01:40;12.10;;;9.15;;
4391;SDS011;2210;51.938;8.488;2022-08-21T07:05:41;12.60;;;7.33;;
4391;SDS011;2210;51.938;8.488;2022-08-21T07:09:41;17.37;;;8.70;;
4391;SDS011;2210;51.938;8.488;2022-08-21T07:13:41;10.40;;;7.50;;
4391;SDS011;2210;51.938;8.488;2022-08-21T07:17:41;17.47;;;7.73;;
4391;SDS011;2210;51.938;8.488;2022-08-21T07:21:42;12.07;;;7.50;;
4391;SDS011;2210;51.938;8.488;2022-08-21T07:25:42;14.40;;;7.70;;
4391;SDS011;2210;51.938;8.488;2022-08-21T07:29:42;11.82;;;7.95;;
4391;SDS011;2210;51.938;8.488;2022-08-21T07:33:43;12.63;;;7.30;;
4391;SDS011;2210;51.938;8.488;2022-08-21T07:37:44;13.53;;;7.40;;
4391;SDS011;2210;51.938;8.488;2022-08-21T07:41:44;11.17;;;6.83;;
4391;SDS011;2210;51.938;8.488;2022-08-21T07:45:45;11.52;;;7.28;;
4391;SDS011;2210;51.938;8.488;2022-08-21T07:49:45;10.23;;;6.40;;
4391;SDS011;2210;51.938;8.488;2022-08-21T07:53:50;10.23;;;6.40;;
4391;SDS011;2210;51.938;8.488;2022-08-21T07:57:51;7.87;;;5.43;;
4391;SDS011;2210;51.938;8.488;2022-08-21T08:01:51;10.50;;;6.53;;
4391;SDS011;2210;51.938;8.488;2022-08-21T08:05:52;8.80;;;6.30;;
4391;SDS011;2210;51.938;8.488;2022-08-21T08:09:52;12.43;;;5.90;;
4391;SDS011;2210;51.938;8.488;2022-08-21T08:13:53;12.37;;;6.03;;
4391;SDS011;2210;51.938;8.488;2022-08-21T08:17:53;10.03;;;6.53;;
4391;SDS011;2210;51.938;8.488;2022-08-21T08:21:55;7.40;;;4.73;;
4391;SDS011;2210;51.938;8.488;2022-08-21T08:25:56;8.37;;;4.23;;
4391;SDS011;2210;51.938;8.488;2022-08-21T08:29:56;10.70;;;5.13;;
4391;SDS011;2210;51.938;8.488;2022-08-21T08:33:57;10.27;;;4.03;;
4391;SDS011;2210;51.938;8.488;2022-08-21T08:37:57;9.27;;;5.10;;
4391;SDS011;2210;51.938;8.488;2022-08-21T08:41:59;9.30;;;4.00;;
4391;SDS011;2210;51.938;8.488;2022-08-21T08:46:10;8.30;;;4.50;;
4391;SDS011;2210;51.938;8.488;2022-08-21T08:50:19;8.97;;;4.23;;
4391;SDS011;2210;51.938;8.488;2022-08-21T08:54:40;6.83;;;3.53;;
4391;SDS011;2210;51.938;8.488;2022-08-21T08:59:11;13.80;;;4.13;;
4391;SDS011;2210;51.938;8.488;2022-08-21T09:03:59;7.53;;;3.77;;
4391;SDS011;2210;51.938;8.488;2022-08-21T09:13:16;6.40;;;4.10;;
4391;SDS011;2210;51.938;8.488;2022-08-21T09:26:25;7.60;;;3.40;;
4391;SDS011;2210;51.938;8.488;2022-08-21T09:30:33;8.13;;;2.63;;
4391;SDS011;2210;51.938;8.488;2022-08-21T09:39:38;7.33;;;2.90;;
4391;SDS011;2210;51.938;8.488;2022-08-21T09:43:41;3.33;;;2.17;;
4391;SDS011;2210;51.938;8.488;2022-08-21T09:52:20;7.83;;;3.83;;
4391;SDS011;2210;51.938;8.488;2022-08-21T09:56:29;5.47;;;2.53;;
4391;SDS011;2210;51.938;8.488;2022-08-21T10:01:01;5.00;;;2.37;;
4391;SDS011;2210;51.938;8.488;2022-08-21T10:05:18;5.60;;;2.70;;
4391;SDS011;2210;51.938;8.488;2022-08-21T10:09:27;9.30;;;2.40;;
4391;SDS011;2210;51.938;8.488;2022-08-21T10:18:14;3.90;;;2.50;;
4391;SDS011;2210;51.938;8.488;2022-08-21T10:22:30;8.47;;;2.60;;
4391;SDS011;2210;51.938;8.488;2022-08-21T10:35:43;6.00;;;2.10;;
4391;SDS011;2210;51.938;8.488;2022-08-21T10:53:50;11.40;;;2.10;;
4391;SDS011;2210;51.938;8.488;2022-08-21T10:58:03;4.90;;;2.10;;
4391;SDS011;2210;51.938;8.488;2022-08-21T11:07:16;4.83;;;2.10;;
4391;SDS011;2210;51.938;8.488;2022-08-21T11:16:25;4.30;;;1.90;;
4391;SDS011;2210;51.938;8.488;2022-08-21T11:25:29;4.77;;;2.00;;
4391;SDS011;2210;51.938;8.488;2022-08-21T11:29:38;3.30;;;1.90;;
4391;SDS011;2210;51.938;8.488;2022-08-21T11:46:20;3.90;;;2.10;;
4391;SDS011;2210;51.938;8.488;2022-08-21T11:50:31;4.53;;;2.30;;
4391;SDS011;2210;51.938;8.488;2022-08-21T11:58:59;5.73;;;2.27;;
4391;SDS011;2210;51.938;8.488;2022-08-21T12:03:14;3.67;;;1.90;;
4391;SDS011;2210;51.938;8.488;2022-08-21T12:07:28;8.20;;;2.40;;
4391;SDS011;2210;51.938;8.488;2022-08-21T12:11:59;5.17;;;1.90;;
4391;SDS011;2210;51.938;8.488;2022-08-21T12:16:28;5.47;;;2.00;;
4391;SDS011;2210;51.938;8.488;2022-08-21T12:20:41;4.00;;;2.53;;
4391;SDS011;2210;51.938;8.488;2022-08-21T12:28:48;7.40;;;2.40;;
4391;SDS011;2210;51.938;8.488;2022-08-21T12:32:59;5.17;;;2.03;;
4391;SDS011;2210;51.938;8.488;2022-08-21T12:37:17;7.53;;;1.93;;
4391;SDS011;2210;51.938;8.488;2022-08-21T12:41:34;3.97;;;1.83;;
4391;SDS011;2210;51.938;8.488;2022-08-21T12:45:54;8.40;;;1.87;;
4391;SDS011;2210;51.938;8.488;2022-08-21T12:50:35;4.53;;;1.77;;
4391;SDS011;2210;51.938;8.488;2022-08-21T12:54:46;4.70;;;1.70;;
4391;SDS011;2210;51.938;8.488;2022-08-21T12:59:00;4.77;;;1.90;;
4391;SDS011;2210;51.938;8.488;2022-08-21T13:03:13;1.80;;;1.13;;
4391;SDS011;2210;51.938;8.488;2022-08-21T13:07:31;2.60;;;1.30;;
4391;SDS011;2210;51.938;8.488;2022-08-21T13:11:43;2.83;;;1.67;;
4391;SDS011;2210;51.938;8.488;2022-08-21T13:15:48;3.33;;;1.33;;
4391;SDS011;2210;51.938;8.488;2022-08-21T13:20:08;3.57;;;1.67;;
4391;SDS011;2210;51.938;8.488;2022-08-21T13:24:17;5.90;;;1.87;;
4391;SDS011;2210;51.938;8.488;2022-08-21T13:28:34;8.43;;;1.83;;
4391;SDS011;2210;51.938;8.488;2022-08-21T13:32:44;4.60;;;1.80;;
4391;SDS011;2210;51.938;8.488;2022-08-21T13:36:52;3.60;;;1.53;;
4391;SDS011;2210;51.938;8.488;2022-08-21T13:45:36;3.30;;;1.60;;
4391;SDS011;2210;51.938;8.488;2022-08-21T13:49:40;2.47;;;1.43;;
4391;SDS011;2210;51.938;8.488;2022-08-21T13:53:48;11.90;;;2.87;;
4391;SDS011;2210;51.938;8.488;2022-08-21T13:58:00;2.73;;;1.60;;
4391;SDS011;2210;51.938;8.488;2022-08-21T14:02:15;3.60;;;1.57;;
4391;SDS011;2210;51.938;8.488;2022-08-21T14:06:22;6.27;;;2.10;;
4391;SDS011;2210;51.938;8.488;2022-08-21T14:10:26;5.13;;;1.63;;
4391;SDS011;2210;51.938;8.488;2022-08-21T14:14:30;4.90;;;2.20;;
4391;SDS011;2210;51.938;8.488;2022-08-21T14:18:33;4.13;;;1.70;;
4391;SDS011;2210;51.938;8.488;2022-08-21T14:22:54;2.80;;;1.50;;
4391;SDS011;2210;51.938;8.488;2022-08-21T14:27:02;3.70;;;1.70;;
4391;SDS011;2210;51.938;8.488;2022-08-21T14:31:18;2.50;;;1.60;;
4391;SDS011;2210;51.938;8.488;2022-08-21T14:35:23;2.67;;;1.63;;
4391;SDS011;2210;51.938;8.488;2022-08-21T14:39:23;3.07;;;1.40;;
4391;SDS011;2210;51.938;8.488;2022-08-21T14:43:25;4.70;;;1.70;;
4391;SDS011;2210;51.938;8.488;2022-08-21T14:47:27;4.53;;;1.20;;
4391;SDS011;2210;51.938;8.488;2022-08-21T14:51:28;2.87;;;1.30;;
4391;SDS011;2210;51.938;8.488;2022-08-21T14:55:29;2.80;;;1.10;;
4391;SDS011;2210;51.938;8.488;2022-08-21T15:04:02;2.00;;;1.17;;
4391;SDS011;2210;51.938;8.488;2022-08-21T15:08:03;2.60;;;0.90;;
4391;SDS011;2210;51.938;8.488;2022-08-21T15:12:04;2.87;;;1.17;;
4391;SDS011;2210;51.938;8.488;2022-08-21T15:16:05;1.57;;;1.10;;
4391;SDS011;2210;51.938;8.488;2022-08-21T15:20:10;5.63;;;1.40;;
4391;SDS011;2210;51.938;8.488;2022-08-21T15:24:10;3.00;;;1.40;;
4391;SDS011;2210;51.938;8.488;2022-08-21T15:28:11;3.22;;;1.60;;
4391;SDS011;2210;51.938;8.488;2022-08-21T15:32:17;4.20;;;1.67;;
4391;SDS011;2210;51.938;8.488;2022-08-21T15:36:20;2.23;;;1.20;;
4391;SDS011;2210;51.938;8.488;2022-08-21T15:40:20;2.40;;;1.20;;
4391;SDS011;2210;51.938;8.488;2022-08-21T15:44:21;3.63;;;1.20;;
4391;SDS011;2210;51.938;8.488;2022-08-21T15:48:21;2.37;;;0.90;;
4391;SDS011;2210;51.938;8.488;2022-08-21T15:52:22;1.60;;;1.13;;
4391;SDS011;2210;51.938;8.488;2022-08-21T15:56:24;2.83;;;1.30;;
4391;SDS011;2210;51.938;8.488;2022-08-21T16:00:26;5.17;;;1.77;;
4391;SDS011;2210;51.938;8.488;2022-08-21T16:04:33;2.60;;;1.50;;
4391;SDS011;2210;51.938;8.488;2022-08-21T16:08:34;3.17;;;1.13;;
4391;SDS011;2210;51.938;8.488;2022-08-21T16:12:35;2.23;;;1.10;;
4391;SDS011;2210;51.938;8.488;2022-08-21T16:16:38;4.20;;;1.53;;
4391;SDS011;2210;51.938;8.488;2022-08-21T16:20:38;1.93;;;1.00;;
4391;SDS011;2210;51.938;8.488;2022-08-21T16:24:39;4.30;;;1.20;;
4391;SDS011;2210;51.938;8.488;2022-08-21T16:28:40;6.03;;;1.50;;
4391;SDS011;2210;51.938;8.488;2022-08-21T16:32:42;2.07;;;1.13;;
4391;SDS011;2210;51.938;8.488;2022-08-21T16:36:43;2.90;;;1.50;;
4391;SDS011;2210;51.938;8.488;2022-08-21T16:40:44;3.10;;;1.33;;
4391;SDS011;2210;51.938;8.488;2022-08-21T16:44:45;2.53;;;1.10;;
4391;SDS011;2210;51.938;8.488;2022-08-21T16:48:45;3.00;;;1.10;;
4391;SDS011;2210;51.938;8.488;2022-08-21T16:52:46;3.03;;;1.40;;
4391;SDS011;2210;51.938;8.488;2022-08-21T16:56:46;4.90;;;1.30;;
4391;SDS011;2210;51.938;8.488;2022-08-21T17:00:47;2.60;;;1.20;;
4391;SDS011;2210;51.938;8.488;2022-08-21T17:04:48;2.37;;;1.60;;
4391;SDS011;2210;51.938;8.488;2022-08-21T17:08:48;5.93;;;1.10;;
4391;SDS011;2210;51.938;8.488;2022-08-21T17:12:54;1.13;;;0.90;;
4391;SDS011;2210;51.938;8.488;2022-08-21T17:16:56;3.17;;;1.23;;
4391;SDS011;2210;51.938;8.488;2022-08-21T17:20:56;1.57;;;1.00;;
4391;SDS011;2210;51.938;8.488;2022-08-21T17:24:56;3.77;;;1.17;;
4391;SDS011;2210;51.938;8.488;2022-08-21T17:28:57;1.47;;;1.03;;
4391;SDS011;2210;51.938;8.488;2022-08-21T17:32:57;3.27;;;1.40;;
4391;SDS011;2210;51.938;8.488;2022-08-21T17:36:59;2.10;;;1.30;;
4391;SDS011;2210;51.938;8.488;2022-08-21T17:41:00;2.63;;;1.25;;
4391;SDS011;2210;51.938;8.488;2022-08-21T17:45:01;5.93;;;1.33;;
4391;SDS011;2210;51.938;8.488;2022-08-21T17:49:02;1.40;;;1.10;;
4391;SDS011;2210;51.938;8.488;2022-08-21T17:53:03;2.57;;;1.27;;
4391;SDS011;2210;51.938;8.488;2022-08-21T17:57:04;2.87;;;1.50;;
4391;SDS011;2210;51.938;8.488;2022-08-21T18:01:04;3.03;;;1.23;;
4391;SDS011;2210;51.938;8.488;2022-08-21T18:05:06;1.90;;;1.20;;
4391;SDS011;2210;51.938;8.488;2022-08-21T18:09:08;3.40;;;1.40;;
4391;SDS011;2210;51.938;8.488;2022-08-21T18:13:09;3.80;;;1.20;;
4391;SDS011;2210;51.938;8.488;2022-08-21T18:17:13;2.80;;;1.20;;
4391;SDS011;2210;51.938;8.488;2022-08-21T18:21:18;1.70;;;1.17;;
4391;SDS011;2210;51.938;8.488;2022-08-21T18:25:18;2.73;;;1.20;;
4391;SDS011;2210;51.938;8.488;2022-08-21T18:29:19;1.73;;;1.23;;
4391;SDS011;2210;51.938;8.488;2022-08-21T18:33:21;1.97;;;1.30;;
4391;SDS011;2210;51.938;8.488;2022-08-21T18:37:22;2.50;;;1.20;;
4391;SDS011;2210;51.938;8.488;2022-08-21T18:41:22;1.70;;;1.07;;
4391;SDS011;2210;51.938;8.488;2022-08-21T18:45:23;3.03;;;1.40;;
4391;SDS011;2210;51.938;8.488;2022-08-21T18:49:23;2.30;;;1.37;;
4391;SDS011;2210;51.938;8.488;2022-08-21T18:53:24;3.63;;;1.50;;
4391;SDS011;2210;51.938;8.488;2022-08-21T18:57:26;3.97;;;1.40;;
4391;SDS011;2210;51.938;8.488;2022-08-21T19:01:28;1.73;;;1.20;;
4391;SDS011;2210;51.938;8.488;2022-08-21T19:05:28;2.47;;;1.33;;
4391;SDS011;2210;51.938;8.488;2022-08-21T19:09:29;2.90;;;1.63;;
4391;SDS011;2210;51.938;8.488;2022-08-21T19:13:30;5.47;;;1.90;;
4391;SDS011;2210;51.938;8.488;2022-08-21T19:17:30;4.97;;;1.60;;
4391;SDS011;2210;51.938;8.488;2022-08-21T19:21:31;1.70;;;1.30;;
4391;SDS011;2210;51.938;8.488;2022-08-21T19:25:31;2.03;;;1.80;;
4391;SDS011;2210;51.938;8.488;2022-08-21T19:29:33;4.83;;;1.20;;
4391;SDS011;2210;51.938;8.488;2022-08-21T19:33:35;4.57;;;1.50;;
4391;SDS011;2210;51.938;8.488;2022-08-21T19:37:38;4.07;;;1.63;;
4391;SDS011;2210;51.938;8.488;2022-08-21T19:41:40;2.87;;;1.63;;
4391;SDS011;2210;51.938;8.488;2022-08-21T19:45:44;3.97;;;1.47;;
4391;SDS011;2210;51.938;8.488;2022-08-21T19:49:49;3.37;;;1.87;;
4391;SDS011;2210;51.938;8.488;2022-08-21T19:53:53;6.10;;;2.90;;
4391;SDS011;2210;51.938;8.488;2022-08-21T19:57:54;2.63;;;1.80;;
4391;SDS011;2210;51.938;8.488;2022-08-21T20:01:54;3.60;;;2.00;;
4391;SDS011;2210;51.938;8.488;2022-08-21T20:05:55;3.90;;;2.00;;
4391;SDS011;2210;51.938;8.488;2022-08-21T20:09:55;5.07;;;2.20;;
4391;SDS011;2210;51.938;8.488;2022-08-21T20:13:56;5.60;;;2.27;;
4391;SDS011;2210;51.938;8.488;2022-08-21T20:17:57;1.70;;;1.60;;
4391;SDS011;2210;51.938;8.488;2022-08-21T20:21:57;3.90;;;2.53;;
4391;SDS011;2210;51.938;8.488;2022-08-21T20:25:58;3.97;;;1.90;;
4391;SDS011;2210;51.938;8.488;2022-08-21T20:29:59;3.20;;;1.73;;
4391;SDS011;2210;51.938;8.488;2022-08-21T20:33:59;3.07;;;2.23;;
4391;SDS011;2210;51.938;8.488;2022-08-21T20:38:00;5.23;;;2.33;;
4391;SDS011;2210;51.938;8.488;2022-08-21T20:42:00;4.57;;;2.13;;
4391;SDS011;2210;51.938;8.488;2022-08-21T20:46:02;3.83;;;1.87;;
4391;SDS011;2210;51.938;8.488;2022-08-21T20:50:04;3.63;;;1.93;;
4391;SDS011;2210;51.938;8.488;2022-08-21T20:54:12;6.20;;;2.20;;
4391;SDS011;2210;51.938;8.488;2022-08-21T20:58:31;3.17;;;2.23;;
4391;SDS011;2210;51.938;8.488;2022-08-21T21:02:49;3.07;;;1.50;;
4391;SDS011;2210;51.938;8.488;2022-08-21T21:06:54;2.93;;;2.10;;
4391;SDS011;2210;51.938;8.488;2022-08-21T21:11:01;5.30;;;2.07;;
4391;SDS011;2210;51.938;8.488;2022-08-21T21:23:39;3.40;;;1.90;;
4391;SDS011;2210;51.938;8.488;2022-08-21T21:27:48;3.67;;;2.00;;
4391;SDS011;2210;51.938;8.488;2022-08-21T21:31:54;2.90;;;1.67;;
4391;SDS011;2210;51.938;8.488;2022-08-21T21:36:04;4.13;;;1.77;;
4391;SDS011;2210;51.938;8.488;2022-08-21T21:40:38;4.33;;;2.50;;
4391;SDS011;2210;51.938;8.488;2022-08-21T21:44:56;2.00;;;1.60;;
4391;SDS011;2210;51.938;8.488;2022-08-21T21:49:23;2.80;;;1.70;;
4391;SDS011;2210;51.938;8.488;2022-08-21T21:53:35;2.60;;;1.63;;
4391;SDS011;2210;51.938;8.488;2022-08-21T22:02:28;5.07;;;1.83;;
4391;SDS011;2210;51.938;8.488;2022-08-21T22:07:06;4.10;;;2.13;;
4391;SDS011;2210;51.938;8.488;2022-08-21T22:15:28;2.27;;;1.60;;
4391;SDS011;2210;51.938;8.488;2022-08-21T22:19:34;2.80;;;1.63;;
4391;SDS011;2210;51.938;8.488;2022-08-21T22:23:43;3.87;;;1.70;;
4391;SDS011;2210;51.938;8.488;2022-08-21T22:27:48;2.53;;;2.33;;
4391;SDS011;2210;51.938;8.488;2022-08-21T22:32:04;4.53;;;2.60;;
4391;SDS011;2210;51.938;8.488;2022-08-21T22:36:15;5.17;;;2.80;;
4391;SDS011;2210;51.938;8.488;2022-08-21T22:40:23;4.77;;;2.63;;
4391;SDS011;2210;51.938;8.488;2022-08-21T22:44:26;3.10;;;2.30;;
4391;SDS011;2210;51.938;8.488;2022-08-21T22:48:28;2.80;;;2.17;;
4391;SDS011;2210;51.938;8.488;2022-08-21T22:52:32;5.03;;;2.77;;
4391;SDS011;2210;51.938;8.488;2022-08-21T22:56:37;4.80;;;2.07;;
4391;SDS011;2210;51.938;8.488;2022-08-21T23:05:20;3.43;;;2.40;;
4391;SDS011;2210;51.938;8.488;2022-08-21T23:09:29;3.20;;;2.17;;
4391;SDS011;2210;51.938;8.488;2022-08-21T23:13:39;6.33;;;2.13;;
4391;SDS011;2210;51.938;8.488;2022-08-21T23:17:51;3.77;;;1.90;;
4391;SDS011;2210;51.938;8.488;2022-08-21T23:26:28;4.67;;;2.37;;
4391;SDS011;2210;51.938;8.488;2022-08-21T23:30:42;5.13;;;2.33;;
4391;SDS011;2210;51.938;8.488;2022-08-21T23:39:15;6.30;;;2.37;;
4391;SDS011;2210;51.938;8.488;2022-08-21T23:48:14;3.50;;;2.07;;
4391;SDS011;2210;51.938;8.488;2022-08-21T23:56:45;3.57;;;1.90;;
